Disclaimer

Please do not use the information listed here in-flight or in-navigation, as they are not provided to us by the airports but are provided by volunteers, so they might be outdated.

Search


Regions


Airport information page

Radio informations:
Tower (TWR) - 119.8 MHz

Airport informations:
Latitude: 63° 47' 30.58" N
Longitude: 020° 16' 57.93" E
Elevation: 24 feet - 7 meters
Operating hours: Remarks
Operating agency: Civil government, landing fees and diplomatic clearance may be required
Timezone: UTC+1(+2DT) - Last Sunday in March to last Sunday in October
Fuel: Jet A1, without icing nhibitor.

100/130 MIL Spec, low lead, aviation gasoline (BLUE)

Runway information:
14/32 - 7551 x 148 feet< - >2302 x 45 meters

Recent METARs:
ESNU 181920Z 34005KT 9999 BKN020 00/M02 Q1043 R14/12//65
ESNU 181950Z 34005KT 9999 OVC019 00/M02 Q1043 R14/12//65
ESNU 182020Z 33005KT 9999 OVC018 00/M02 Q1043 R14/12//65

Airport on the map: